• Join FlightAware (Why Join?)
  • Login
  • US Flag 
10:21AM EDT


 

Airport Tracker/Info


-or-


 

Live Flight TrackerFlight Track Log ✈ N99PN ✈ 19-May-2014 ✈ KORL - KSRQ

Flight Track Log - Related Links

Times and Time Zones

All times are in EDT time to prevent confusion due to time zone crossing. See the N99PN flight status page for this flight to view local times or setup timezone preferences in your user account.

Time Position Orientation Groundspeed Altitude Reporting Facility
EDT Latitude Longitude Course Direction KTS MPH feet Rate Location/Type
02:16PM 28.5500 -81.3167 41° Northeast 107 123 400  Level Orlando TRACON
02:18PM 28.6000 -81.2667 41° Northeast 157 181 1,700 540 Climbing Orlando TRACON
02:19PM 28.6167 -81.3333 286° West 177 204 2,000 120 Climbing Orlando TRACON
02:20PM 28.6167 -81.3833 270° West 189 217 2,000 180 Level Orlando TRACON
02:21PM 28.5833 -81.4333 233° Southwest 176 203 2,400 480 Climbing Orlando TRACON
02:23PM 28.5639 -81.5056 253° West 174 200 3,400 780 Climbing Miami Center
02:24PM 28.5472 -81.5622 252° West 162 186 4,500 960 Climbing Miami Center
02:25PM 28.5153 -81.5972 224° Southwest 162 186 5,400 840 Climbing Miami Center
02:26PM 28.4500 -81.6333 206° Southwest 164 189 6,700 780 Climbing Orlando TRACON
02:27PM 28.4167 -81.6667 221° Southwest 169 194 7,400 420 Climbing Orlando TRACON
02:29PM 28.3500 -81.7167 213° Southwest 185 213 7,900 240 Climbing Tampa TRACON
02:30PM 28.3050 -81.7494 213° Southwest 199 229 8,100  Climbing Miami Center
02:31PM 28.2586 -81.7833 213° Southwest 199 229 8,000  Descending Miami Center
02:33PM 28.1667 -81.8500 213° Southwest 198 228 8,100  Climbing Tampa TRACON
02:34PM 28.1167 -81.8833 210° Southwest 199 229 8,100  Level Tampa TRACON
02:35PM 28.0833 -81.9333 233° Southwest 194 223 8,100 -240 Level Tampa TRACON
02:37PM 28.0000 -82.0167 221° Southwest 193 222 7,500 -600 Descending Tampa TRACON
02:39PM 27.9019 -82.1008 217° Southwest 191 220 5,700 -840 Descending Miami Center
02:40PM 27.8667 -82.1333 219° Southwest 189 217 5,000 -660 Descending Tampa TRACON
02:42PM 27.7833 -82.2000 215° Southwest 185 213 4,000 -360 Descending Tampa TRACON
02:43PM 27.7500 -82.2333 222° Southwest 190 219 4,000  Level Tampa TRACON
02:44PM 27.7000 -82.2667 211° Southwest 191 220 4,000  Level Tampa TRACON
02:45PM 27.6667 -82.3167 233° Southwest 197 227 4,000  Level Tampa TRACON
02:46PM 27.6333 -82.3667 233° Southwest 196 226 4,000  Level Tampa TRACON
02:47PM 27.6167 -82.4167 249° West 192 221 4,100  Climbing Tampa TRACON
02:48PM 27.6000 -82.4667 249° West 196 226 4,000 -420 Descending Tampa TRACON
02:49PM 27.5667 -82.5333 241° Southwest 191 220 3,300 -840 Descending Tampa TRACON
02:50PM 27.5500 -82.5833 249° West 189 217 2,300 -780 Descending Tampa TRACON
02:51PM 27.5000 -82.6167 211° Southwest 182 209 1,800 -420 Descending Tampa TRACON
02:52PM 27.4817 -82.6375 225° Southwest 183 211 1,600 -300 Descending Miami Center
02:53PM 27.4333 -82.6167 159° South 94 108 1,200 -360 Descending Tampa TRACON
02:55PM 27.4117 -82.5742 120° Southeast 108 124 600 -360 Descending Miami Center
02:57PM 27.3954 -82.5544 170° South  Level Estimated
03:04PM 27.3954 -82.5544 North  Level Estimated